Time;durP1;ratioP1;P1;durP2;ratioP2;P2;SDS_P1;SDS_P2;PMS_P1;PMS_P2;Temp;Humidity;BMP_temperature;BMP_pressure;BME280_temperature;BME280_humidity;BME280_pressure;Samples;Min_cycle;Max_cycle;Signal;HPM_P1;HPM_P2
2022/06/13 00:01:42;;;;;;;4.60;2.58;;;;;;;21.88;43.29;100016.27;2063264;95;25795;-74
2022/06/13 00:05:25;;;;;;;6.00;2.52;;;;;;;21.85;43.40;100016.36;2011415;97;26150;-74
2022/06/13 00:12:46;;;;;;;;;;;;;;;;;;;;;
2022/06/13 00:21:03;;;;;;;9.60;2.27;;;;;;;21.95;43.77;100003.70;1755092;110;26370;-82
2022/06/13 00:24:47;;;;;;;3.90;2.30;;;;;;;22.15;44.02;100001.36;1743583;110;25890;-73
2022/06/13 00:28:40;;;;;;;3.90;2.27;;;;;;;22.34;43.92;100005.20;1805647;107;26274;-73
2022/06/13 00:32:23;;;;;;;;;;;;;;;;;;;;;
2022/06/13 00:42:49;;;;;;;;;;;;;;;;;;;;;
2022/06/13 00:47:53;;;;;;;3.95;2.30;;;;;;;23.30;42.62;100058.83;1879526;101;25836;-71
2022/06/13 00:56:40;;;;;;;;;;;;;;;;;;;;;
2022/06/13 01:00:16;;;;;;;7.55;2.40;;;;;;;23.36;43.55;100124.27;1793453;107;26047;-76
2022/06/13 01:03:46;;;;;;;7.22;3.77;;;;;;;23.41;44.28;100132.48;1807467;107;25951;-74
2022/06/13 01:11:22;;;;;;;4.62;2.77;;;;;;;23.14;46.90;100134.25;1825406;105;25926;-75
2022/06/13 01:14:55;;;;;;;6.30;3.42;;;;;;;22.90;47.75;100101.31;1850769;101;25925;-73
2022/06/13 01:19:27;;;;;;;;;;;;;;;;;;;;;
2022/06/13 01:28:17;;;;;;;7.15;2.50;;;;;;;22.93;48.69;100076.46;1951151;100;26904;-77
2022/06/13 01:32:55;;;;;;;;;;;;;;;;;;;;;
2022/06/13 01:36:41;;;;;;;3.60;2.40;;;;;;;22.90;49.05;100053.93;1985245;97;25888;-73
2022/06/13 01:41:02;;;;;;;5.42;2.02;;;;;;;22.89;49.08;100045.09;1968153;98;25881;-73
2022/06/13 01:45:27;;;;;;;6.78;2.50;;;;;;;22.97;49.18;100031.57;1951845;97;25713;-74
2022/06/13 01:49:23;;;;;;;6.05;2.75;;;;;;;22.91;49.41;100016.66;2057390;94;25802;-74
2022/06/13 01:53:01;;;;;;;5.75;2.17;;;;;;;22.77;49.69;100015.77;2073349;92;25888;-73
2022/06/13 01:56:36;;;;;;;4.60;1.90;;;;;;;22.62;50.11;100006.98;2074357;95;25711;-73
2022/06/13 02:00:49;;;;;;;7.67;2.27;;;;;;;22.54;50.38;100005.88;2075710;95;25945;-73
2022/06/13 02:04:30;;;;;;;2.92;1.92;;;;;;;22.54;50.64;100009.00;2146066;89;26188;-74
2022/06/13 02:08:01;;;;;;;3.52;1.87;;;;;;;22.40;50.86;99996.15;2208639;88;25776;-74
2022/06/13 02:11:54;;;;;;;6.95;1.75;;;;;;;22.32;51.10;99991.55;2207702;89;25782;-74
2022/06/13 02:15:23;;;;;;;5.83;1.50;;;;;;;22.27;51.19;99981.51;2210819;87;25965;-78
2022/06/13 02:23:27;;;;;;;;;;;;;;;;;;;;;
2022/06/13 02:26:53;;;;;;;6.37;3.35;;;;;;;22.03;51.89;99970.69;2119095;91;25700;-74
2022/06/13 02:30:23;;;;;;;6.22;1.92;;;;;;;21.98;52.23;99969.11;2102532;91;25981;-79
2022/06/13 02:34:51;;;;;;;2.58;1.92;;;;;;;21.89;52.30;99967.58;2125974;90;25816;-73
2022/06/13 02:39:10;;;;;;;7.28;2.55;;;;;;;21.84;52.53;99954.45;2113560;92;25872;-76
2022/06/13 02:43:04;;;;;;;4.15;2.05;;;;;;;21.79;52.56;99950.19;2110803;92;25843;-72
2022/06/13 02:46:47;;;;;;;6.72;1.80;;;;;;;21.80;52.74;99951.49;2118760;90;25892;-73
2022/06/13 02:50:51;;;;;;;3.67;2.15;;;;;;;21.92;52.56;99955.09;2150306;89;25633;-76
2022/06/13 02:55:07;;;;;;;6.40;2.02;;;;;;;21.92;52.69;99950.24;2155308;88;25286;-75
2022/06/13 02:58:55;;;;;;;6.58;1.70;;;;;;;21.84;52.90;99939.00;2181413;88;25405;-74
2022/06/13 03:06:30;;;;;;;3.87;2.00;;;;;;;21.69;53.22;99929.69;2087415;93;25873;-77
2022/06/13 03:09:58;;;;;;;6.60;2.05;;;;;;;21.57;53.52;99928.27;2073256;93;25660;-75
2022/06/13 03:14:00;;;;;;;7.28;2.37;;;;;;;21.49;53.64;99936.89;2089677;93;25864;-75
2022/06/13 03:17:58;;;;;;;8.63;2.02;;;;;;;21.36;53.95;99927.53;2109916;92;25648;-74
2022/06/13 03:21:32;;;;;;;5.08;2.27;;;;;;;21.22;54.31;99930.53;2123555;92;25753;-73
2022/06/13 03:25:56;;;;;;;4.95;1.70;;;;;;;21.17;54.33;99932.00;2039334;95;25747;-74
2022/06/13 03:29:57;;;;;;;5.35;1.95;;;;;;;21.14;54.46;99933.87;2037501;95;25772;-72
2022/06/13 03:33:52;;;;;;;3.95;2.70;;;;;;;21.06;54.70;99926.55;1941069;97;25958;-73
2022/06/13 03:37:36;;;;;;;3.62;2.77;;;;;;;21.01;55.18;99926.69;2021457;96;25715;-72
2022/06/13 03:41:09;;;;;;;4.03;2.58;;;;;;;20.87;55.14;99920.43;2018231;96;25891;-72
2022/06/13 03:44:58;;;;;;;2.60;1.90;;;;;;;20.81;55.52;99914.42;1993698;97;25338;-74
2022/06/13 03:48:31;;;;;;;3.85;2.27;;;;;;;20.85;55.49;99910.77;2025438;97;25828;-72
2022/06/13 03:52:00;;;;;;;6.22;2.50;;;;;;;20.89;55.69;99915.08;2024898;97;25723;-72
2022/06/13 03:56:14;;;;;;;10.78;2.33;;;;;;;20.82;55.57;99911.71;2021392;95;25765;-73
2022/06/13 03:59:58;;;;;;;8.05;2.85;;;;;;;20.68;55.88;99923.13;2025582;97;25736;-73
2022/06/13 04:03:42;;;;;;;8.15;2.40;;;;;;;20.59;55.98;99939.27;2088812;92;25848;-72
2022/06/13 04:07:08;;;;;;;7.85;2.58;;;;;;;20.38;56.33;99949.41;2172984;89;25679;-73
2022/06/13 04:10:34;;;;;;;5.28;2.90;;;;;;;20.38;56.48;99963.09;2174447;89;25726;-72
2022/06/13 04:14:56;;;;;;;7.05;2.80;;;;;;;20.36;56.71;99965.80;2223045;83;25681;-73
2022/06/13 04:19:04;;;;;;;4.08;2.30;;;;;;;20.30;56.65;99980.48;2325056;83;25634;-76
2022/06/13 04:23:05;;;;;;;8.75;2.95;;;;;;;20.43;56.97;99973.14;2320906;84;25700;-73
2022/06/13 04:26:56;;;;;;;4.35;2.70;;;;;;;20.62;56.90;99972.27;2319992;83;25852;-76
2022/06/13 04:30:42;;;;;;;;;;;;;;;;;;;;;
2022/06/13 04:34:07;;;;;;;5.10;2.35;;;;;;;20.82;56.96;99979.73;2393281;81;25819;-71
2022/06/13 04:37:43;;;;;;;4.58;2.77;;;;;;;20.93;56.76;99965.33;2395303;80;25566;-73
2022/06/13 04:41:08;;;;;;;8.05;2.87;;;;;;;21.03;56.88;99961.12;2395362;81;25611;-74
2022/06/13 04:44:43;;;;;;;4.22;2.58;;;;;;;21.03;56.72;99952.70;2381803;81;25660;-72
2022/06/13 04:48:11;;;;;;;5.60;2.67;;;;;;;21.09;56.86;99939.73;2403560;81;25671;-74
2022/06/13 04:51:41;;;;;;;4.62;2.83;;;;;;;21.23;56.66;99941.58;2396219;80;25526;-72
2022/06/13 04:55:30;;;;;;;5.17;2.80;;;;;;;21.38;56.53;99938.98;2394759;80;25741;-72
2022/06/13 04:59:02;;;;;;;9.78;2.98;;;;;;;21.46;56.56;99938.30;2393767;81;25645;-72
2022/06/13 05:02:58;;;;;;;8.15;3.27;;;;;;;21.61;56.39;99943.19;2207466;88;25692;-73
2022/06/13 05:06:55;;;;;;;8.33;3.52;;;;;;;21.72;56.14;99944.66;2209709;88;25805;-72
2022/06/13 05:10:34;;;;;;;12.25;4.17;;;;;;;21.73;55.85;99943.73;2204913;88;25735;-74
2022/06/13 05:14:32;;;;;;;6.55;3.72;;;;;;;21.53;55.83;99942.97;2197234;88;25687;-73
2022/06/13 05:18:28;;;;;;;4.92;3.12;;;;;;;21.56;56.06;99942.43;2197080;87;25841;-71
2022/06/13 05:25:59;;;;;;;7.65;4.00;;;;;;;21.52;56.39;99928.84;2197065;88;25725;-73
2022/06/13 05:29:20;;;;;;;5.60;4.05;;;;;;;21.56;56.51;99923.00;2197228;88;26269;-72
2022/06/13 05:33:18;;;;;;;;;;;;;;;;;;;;;
2022/06/13 05:36:34;;;;;;;9.95;4.25;;;;;;;21.27;57.21;99929.11;2153793;88;26037;-76
2022/06/13 05:40:03;;;;;;;6.42;4.50;;;;;;;21.13;57.80;99917.09;2201739;87;25730;-75
2022/06/13 05:43:41;;;;;;;5.08;4.65;;;;;;;20.87;58.53;99915.59;2242116;88;25281;-73
2022/06/13 05:47:23;;;;;;;10.15;5.00;;;;;;;20.73;58.96;99919.92;2222552;88;25818;-74
2022/06/13 05:50:44;;;;;;;8.30;4.17;;;;;;;20.53;59.57;99916.91;2238893;87;26569;-76
2022/06/13 05:54:08;;;;;;;5.70;4.70;;;;;;;20.38;60.28;99913.66;2234033;87;25917;-73
2022/06/13 05:57:30;;;;;;;5.53;5.03;;;;;;;20.27;60.59;99913.92;2313820;85;26448;-76
2022/06/13 06:01:02;;;;;;;7.95;4.87;;;;;;;20.10;61.04;99912.58;2311627;83;25785;-73
2022/06/13 06:04:37;;;;;;;8.88;5.03;;;;;;;19.97;61.73;99912.84;2341247;81;25924;-73
2022/06/13 06:08:39;;;;;;;9.13;5.00;;;;;;;19.85;62.05;99910.50;2383407;80;25852;-79
2022/06/13 06:12:11;;;;;;;9.15;4.60;;;;;;;19.76;62.32;99894.36;2271057;85;26106;-89
2022/06/13 06:15:44;;;;;;;7.72;4.83;;;;;;;19.84;62.62;99899.93;2252069;86;25922;-80
2022/06/13 06:19:17;;;;;;;7.87;6.00;;;;;;;19.86;62.73;99902.10;2260571;85;25683;-75
2022/06/13 06:22:38;;;;;;;5.50;5.00;;;;;;;19.84;62.89;99888.03;2255141;86;25724;-79
2022/06/13 06:26:08;;;;;;;9.17;4.97;;;;;;;19.85;62.86;99870.81;2267432;86;25864;-74
2022/06/13 06:29:31;;;;;;;9.48;4.78;;;;;;;19.93;62.85;99872.82;2270218;86;25714;-76
2022/06/13 06:32:57;;;;;;;4.53;4.05;;;;;;;20.16;62.59;99876.72;2259414;86;25487;-73
2022/06/13 06:36:45;;;;;;;8.48;4.67;;;;;;;20.22;62.51;99866.86;2251592;86;25773;-73
2022/06/13 06:40:19;;;;;;;7.47;4.42;;;;;;;20.34;62.30;99863.02;2268019;86;26027;-75
2022/06/13 06:43:44;;;;;;;7.60;4.45;;;;;;;20.47;62.12;99857.84;2250148;86;25732;-74
2022/06/13 06:47:23;;;;;;;7.72;4.15;;;;;;;20.67;61.70;99853.85;2258761;86;25878;-74
2022/06/13 06:50:53;;;;;;;4.40;3.62;;;;;;;20.79;61.15;99855.30;2385335;81;25641;-73
2022/06/13 07:01:34;;;;;;;5.62;4.22;;;;;;;21.58;60.03;99838.95;2381274;80;25676;-74
2022/06/13 07:05:06;;;;;;;10.63;3.62;;;;;;;21.87;59.18;99837.61;2392007;80;26498;-73
2022/06/13 07:08:30;;;;;;;3.98;3.30;;;;;;;22.08;58.74;99841.36;2360087;81;25791;-78
2022/06/13 07:11:54;;;;;;;7.35;3.15;;;;;;;22.29;58.08;99837.62;2380931;82;25665;-83
2022/06/13 07:15:17;;;;;;;8.23;3.10;;;;;;;22.44;57.23;99834.90;2381097;82;26467;-71
2022/06/13 07:18:41;;;;;;;5.50;2.77;;;;;;;22.54;56.81;99842.96;2383950;82;25664;-74
2022/06/13 07:22:17;;;;;;;5.97;3.30;;;;;;;22.68;56.49;99846.47;2381154;82;25723;-72
2022/06/13 07:29:16;;;;;;;8.53;2.20;;;;;;;22.72;55.37;99852.11;2252633;86;30693;-77
2022/06/13 07:32:46;;;;;;;3.08;1.80;;;;;;;22.62;54.79;99851.55;2258552;86;25794;-72
2022/06/13 07:36:19;;;;;;;14.58;2.42;;;;;;;22.56;54.61;99847.77;2244243;86;25375;-76
2022/06/13 07:39:46;;;;;;;5.87;1.50;;;;;;;22.49;54.68;99847.58;2275211;86;25760;-74
2022/06/13 07:43:25;;;;;;;5.55;1.50;;;;;;;22.59;54.39;99847.67;2261519;86;25854;-71
2022/06/13 07:46:46;;;;;;;3.42;1.57;;;;;;;22.61;53.84;99845.81;2266736;86;26023;-72
2022/06/13 07:50:20;;;;;;;7.10;1.70;;;;;;;22.53;53.23;99851.39;2251790;86;25790;-72
2022/06/13 07:53:53;;;;;;;4.78;1.82;;;;;;;22.53;53.33;99845.22;2246345;85;25764;-73
2022/06/13 07:57:27;;;;;;;11.70;1.30;;;;;;;22.66;53.53;99849.66;2277190;86;25690;-75
2022/06/13 08:00:50;;;;;;;9.23;1.70;;;;;;;22.81;53.68;99845.12;2277516;83;25684;-79
2022/06/13 08:04:16;;;;;;;3.05;1.50;;;;;;;22.89;53.01;99839.56;2250739;86;25717;-73
2022/06/13 08:07:53;;;;;;;3.87;1.30;;;;;;;22.90;53.06;99844.80;2262053;83;25707;-73
2022/06/13 08:11:19;;;;;;;6.72;2.30;;;;;;;22.87;53.41;99831.63;2265622;86;25751;-73
2022/06/13 08:14:45;;;;;;;3.05;1.47;;;;;;;22.79;53.77;99840.34;2243864;85;25698;-76
2022/06/13 08:18:09;;;;;;;3.33;1.70;;;;;;;22.76;54.15;99845.77;2263963;86;26544;-72
2022/06/13 08:21:40;;;;;;;2.20;1.45;;;;;;;22.72;54.43;99841.48;2267086;87;25750;-74
2022/06/13 08:25:07;;;;;;;1.85;1.30;;;;;;;22.80;54.33;99832.30;2301966;82;25971;-73
2022/06/13 08:28:28;;;;;;;5.03;1.10;;;;;;;22.86;54.31;99827.23;2378385;82;25632;-76
2022/06/13 08:31:49;;;;;;;2.92;0.90;;;;;;;22.88;53.04;99816.07;2383735;81;25196;-74
2022/06/13 08:35:20;;;;;;;3.20;0.88;;;;;;;22.83;51.23;99809.61;2368672;81;25694;-75
2022/06/13 08:38:41;;;;;;;1.77;0.95;;;;;;;22.73;50.89;99811.32;2422378;80;25853;-76
2022/06/13 08:42:14;;;;;;;4.58;1.00;;;;;;;22.59;50.87;99810.02;2419178;80;25808;-75
2022/06/13 08:45:57;;;;;;;4.55;1.10;;;;;;;22.42;51.30;99807.55;2429075;80;25672;-73
2022/06/13 08:50:07;;;;;;;2.33;1.35;;;;;;;22.32;51.85;99797.69;2430683;80;25726;-80
2022/06/13 08:53:36;;;;;;;2.75;1.82;;;;;;;22.29;52.64;99807.09;2334369;83;25670;-78
2022/06/13 08:57:00;;;;;;;1.37;1.27;;;;;;;22.21;53.18;99813.09;2268508;86;25790;-80
2022/06/13 09:00:26;;;;;;;2.02;1.35;;;;;;;22.02;53.75;99813.67;2264975;86;25714;-80
2022/06/13 09:04:02;;;;;;;3.08;1.65;;;;;;;21.89;54.42;99806.56;2274614;86;44464;-81
2022/06/13 09:07:38;;;;;;;3.55;1.52;;;;;;;21.91;54.87;99815.35;2269633;86;25732;-78
2022/06/13 09:11:25;;;;;;;4.87;1.77;;;;;;;22.01;54.98;99820.38;2268885;86;25691;-79
2022/06/13 09:15:09;;;;;;;4.80;1.90;;;;;;;22.18;54.98;99827.36;2274422;85;25408;-81
2022/06/13 09:19:19;;;;;;;2.47;1.60;;;;;;;22.25;54.88;99847.48;2265483;86;25867;-81
2022/06/13 09:23:05;;;;;;;4.97;1.70;;;;;;;22.18;55.08;99863.20;2149718;89;25841;-81
2022/06/13 09:26:49;;;;;;;2.77;1.42;;;;;;;22.08;55.35;99863.92;2165273;88;25914;-78
2022/06/13 09:30:24;;;;;;;1.55;1.32;;;;;;;22.07;55.34;99854.66;2212821;86;25787;-80
2022/06/13 09:33:59;;;;;;;1.77;1.27;;;;;;;21.92;55.54;99858.22;2224548;87;25801;-80
2022/06/13 09:46:34;;;;;;;9.53;2.42;;;;;;;21.76;56.25;99862.25;2147355;90;26043;-80
2022/06/13 09:50:44;;;;;;;1.85;1.20;;;;;;;21.83;56.42;99861.61;2173043;89;25742;-77
2022/06/13 09:54:37;;;;;;;2.15;1.35;;;;;;;21.85;56.86;99868.62;2167929;90;26588;-78
2022/06/13 09:58:36;;;;;;;3.85;1.37;;;;;;;21.85;57.00;99869.94;2170088;90;26220;-78
2022/06/13 10:06:42;;;;;;;1.65;1.35;;;;;;;21.83;57.80;99831.95;2150979;90;26123;-77
2022/06/13 10:10:48;;;;;;;3.70;1.50;;;;;;;21.61;58.40;99823.81;2140132;90;25805;-76
2022/06/13 10:14:57;;;;;;;4.45;2.00;;;;;;;21.49;58.82;99817.55;2140876;90;25790;-79
2022/06/13 10:18:49;;;;;;;1.67;1.47;;;;;;;21.34;58.70;99825.94;2146266;88;25420;-77
2022/06/13 10:22:23;;;;;;;3.42;1.40;;;;;;;21.23;59.36;99823.61;2212072;87;25629;-79
2022/06/13 10:26:10;;;;;;;2.12;1.47;;;;;;;21.19;59.18;99809.58;2226589;86;25761;-78
2022/06/13 10:29:51;;;;;;;5.85;1.55;;;;;;;21.19;58.86;99808.67;2248139;86;26417;-77
2022/06/13 10:33:54;;;;;;;2.17;1.22;;;;;;;21.31;58.79;99794.21;2112609;90;25906;-75
2022/06/13 10:37:48;;;;;;;1.92;1.35;;;;;;;21.39;58.62;99789.56;2096016;93;25700;-77
2022/06/13 10:41:13;;;;;;;1.27;1.15;;;;;;;21.50;58.09;99787.91;2091126;94;25761;-74
2022/06/13 10:44:43;;;;;;;1.87;1.17;;;;;;;21.49;57.41;99775.11;2097824;92;25427;-75
2022/06/13 10:48:36;;;;;;;2.27;1.10;;;;;;;21.48;57.33;99769.41;2114482;91;25765;-79
2022/06/13 10:52:19;;;;;;;3.17;1.20;;;;;;;21.56;57.24;99766.05;2118495;91;25693;-75
2022/06/13 10:55:43;;;;;;;1.02;0.88;;;;;;;21.73;56.96;99758.88;2113822;92;25794;-75
2022/06/13 10:59:08;;;;;;;3.72;1.07;;;;;;;21.93;56.67;99763.08;2115315;93;25738;-74
2022/06/13 11:02:29;;;;;;;4.90;1.37;;;;;;;22.06;56.26;99778.61;2139885;91;25746;-75
2022/06/13 11:06:04;;;;;;;1.92;1.10;;;;;;;22.11;56.13;99782.86;2131280;91;25757;-75
2022/06/13 11:09:57;;;;;;;1.92;0.85;;;;;;;22.34;56.03;99774.16;2191228;86;25646;-75
2022/06/13 11:13:41;;;;;;;1.50;1.00;;;;;;;22.63;55.86;99774.44;2266048;86;25810;-75
2022/06/13 11:25:01;;;;;;;3.67;1.00;;;;;;;23.61;53.61;99752.61;2291783;82;25638;-77
2022/06/13 11:28:29;;;;;;;1.80;1.40;;;;;;;23.61;52.73;99753.08;2187724;87;25949;-76
2022/06/13 11:32:03;;;;;;;2.00;1.53;;;;;;;23.52;52.39;99755.20;2219728;88;25934;-77
2022/06/13 11:36:03;;;;;;;1.98;1.20;;;;;;;23.36;52.09;99747.88;2200333;88;25720;-74
2022/06/13 11:39:39;;;;;;;6.37;2.15;;;;;;;23.07;51.76;99732.09;2204252;88;26206;-76
2022/06/13 11:43:13;;;;;;;4.60;1.10;;;;;;;22.92;52.31;99741.97;2224812;87;25738;-75
2022/06/13 11:47:16;;;;;;;1.98;1.60;;;;;;;23.05;52.62;99727.76;2197475;88;25826;-73
2022/06/13 11:50:39;;;;;;;6.55;2.05;;;;;;;23.16;52.46;99737.55;2138289;91;25737;-74
2022/06/13 11:54:24;;;;;;;9.08;1.20;;;;;;;23.23;52.51;99739.50;2142634;91;25830;-88
2022/06/13 11:57:56;;;;;;;2.80;1.27;;;;;;;23.26;52.63;99740.72;2054522;96;25847;-84
2022/06/13 12:01:37;;;;;;;5.55;1.05;;;;;;;23.38;53.05;99748.66;2049278;95;25812;-92
2022/06/13 12:05:00;;;;;;;6.45;1.70;;;;;;;23.45;53.29;99759.00;2031886;96;25830;-88
2022/06/13 12:08:29;;;;;;;7.70;1.12;;;;;;;23.55;53.46;99772.34;2048194;95;25897;-78
2022/06/13 12:11:58;;;;;;;3.47;1.40;;;;;;;23.54;53.80;99770.62;2049680;96;25770;-84
2022/06/13 12:15:37;;;;;;;2.83;1.12;;;;;;;23.51;53.78;99781.38;2047524;96;25883;-89
2022/06/13 12:19:12;;;;;;;3.58;1.50;;;;;;;23.46;53.99;99778.52;2032414;94;26140;-88
2022/06/13 12:22:57;;;;;;;3.80;1.17;;;;;;;23.29;54.66;99775.17;2023261;92;25766;-88
2022/06/13 12:26:42;;;;;;;1.87;1.10;;;;;;;23.14;54.96;99805.86;2157268;89;25895;-82
2022/06/13 12:30:57;;;;;;;1.42;0.95;;;;;;;22.89;55.38;99816.50;2199966;87;26686;-87
2022/06/13 12:34:38;;;;;;;4.62;0.85;;;;;;;22.77;55.68;99815.13;2232042;86;25491;-82
2022/06/13 12:38:43;;;;;;;1.25;0.90;;;;;;;22.95;55.35;99836.69;2270287;85;25727;-83
2022/06/13 12:42:21;;;;;;;1.50;0.70;;;;;;;23.14;55.06;99839.09;2261679;85;25910;-82
2022/06/13 12:46:08;;;;;;;3.52;0.70;;;;;;;23.27;54.59;99828.41;2230423;86;25721;-88
2022/06/13 12:50:33;;;;;;;1.77;0.70;;;;;;;23.30;54.65;99853.56;2230978;87;25896;-89
2022/06/13 12:54:25;;;;;;;1.12;0.75;;;;;;;23.42;54.26;99861.56;2242015;86;25894;-89
2022/06/13 12:58:10;;;;;;;0.50;0.30;;;;;;;23.41;54.23;99870.45;2273897;83;25775;-87
2022/06/13 13:02:01;;;;;;;2.52;0.40;;;;;;;23.33;54.36;99868.08;2305945;84;25716;-80
2022/06/13 13:05:52;;;;;;;2.77;0.68;;;;;;;23.25;54.42;99883.47;2315675;85;25600;-88
2022/06/13 13:09:55;;;;;;;4.15;0.70;;;;;;;23.23;54.17;99889.29;2401698;80;26410;-81
2022/06/13 13:14:07;;;;;;;3.08;0.90;;;;;;;23.22;54.09;99906.18;2302118;84;25763;-80
2022/06/13 13:18:17;;;;;;;2.98;1.20;;;;;;;23.23;53.69;99916.35;2284643;85;25712;-83
2022/06/13 13:26:15;;;;;;;2.10;0.70;;;;;;;23.26;53.46;99912.25;2205000;88;25796;-80
2022/06/13 13:30:24;;;;;;;2.52;0.75;;;;;;;23.28;53.56;99901.08;2218785;87;26525;-83
2022/06/13 13:34:03;;;;;;;3.22;1.75;;;;;;;23.32;53.71;99900.04;2235900;86;25777;-84
2022/06/13 13:37:40;;;;;;;4.53;1.00;;;;;;;23.36;53.84;99891.05;2172336;89;25842;-80
2022/06/13 13:41:16;;;;;;;6.42;0.90;;;;;;;23.40;53.73;99888.67;2166537;88;26496;-84
2022/06/13 13:45:11;;;;;;;2.15;0.60;;;;;;;23.40;53.73;99884.68;2054801;95;25854;-83
2022/06/13 13:48:52;;;;;;;3.40;1.50;;;;;;;23.39;53.73;99878.07;2057722;93;26138;-82
2022/06/13 13:52:28;;;;;;;4.20;1.27;;;;;;;23.40;53.98;99875.84;2081314;92;26355;-83
2022/06/13 13:56:15;;;;;;;6.20;1.85;;;;;;;23.36;54.14;99875.09;2095642;92;25885;-83
2022/06/13 13:59:51;;;;;;;6.53;2.55;;;;;;;23.36;54.25;99895.03;2080758;92;25952;-83
2022/06/13 14:08:28;;;;;;;;;;;;;;;;;;;;;
2022/06/13 14:12:16;;;;;;;6.58;1.75;;;;;;;23.31;54.75;99909.81;2045155;94;25796;-82
2022/06/13 14:16:14;;;;;;;6.28;1.77;;;;;;;23.30;55.37;99910.75;2030167;95;25782;-79
2022/06/13 14:19:55;;;;;;;5.67;1.95;;;;;;;23.29;55.50;99906.83;2010000;96;25767;-81
2022/06/13 14:23:38;;;;;;;4.00;1.60;;;;;;;23.25;55.39;99907.41;1955176;99;26211;-84
2022/06/13 14:27:04;;;;;;;4.28;1.15;;;;;;;23.23;55.46;99902.59;2001020;96;26212;-84
2022/06/13 14:35:11;;;;;;;3.75;1.67;;;;;;;23.23;55.58;99882.64;1975705;99;25801;-83
2022/06/13 14:38:52;;;;;;;5.03;1.30;;;;;;;23.27;55.38;99866.11;1952243;99;25833;-87
2022/06/13 14:43:12;;;;;;;6.95;0.95;;;;;;;23.27;55.26;99872.76;1882952;104;25838;-86
2022/06/13 14:47:01;;;;;;;3.98;1.00;;;;;;;23.27;55.31;99894.90;2053123;94;26673;-81
2022/06/13 14:51:05;;;;;;;4.80;1.32;;;;;;;23.28;54.97;99896.63;2074336;94;26020;-82
2022/06/13 14:55:10;;;;;;;4.87;1.20;;;;;;;23.40;55.22;99895.32;2273268;86;25243;-81
2022/06/13 14:59:00;;;;;;;3.05;1.30;;;;;;;23.54;55.00;99889.48;2279567;86;25735;-81
2022/06/13 15:02:32;;;;;;;2.62;1.07;;;;;;;23.53;54.37;99889.09;2281361;85;25736;-79
2022/06/13 15:06:06;;;;;;;3.37;1.05;;;;;;;23.54;54.06;99858.88;2276373;86;25784;-79
2022/06/13 15:09:53;;;;;;;3.08;1.20;;;;;;;23.52;53.86;99831.02;2251444;83;25833;-80
2022/06/13 15:13:32;;;;;;;3.05;1.40;;;;;;;23.50;53.74;99808.05;2245314;86;25925;-80
2022/06/13 15:16:54;;;;;;;2.08;1.00;;;;;;;23.49;53.52;99775.27;2249276;86;25736;-82
2022/06/13 15:20:32;;;;;;;2.70;0.98;;;;;;;23.49;53.66;99751.33;2296848;84;25797;-80
2022/06/13 15:24:05;;;;;;;1.47;0.80;;;;;;;23.53;54.00;99778.67;2293184;84;25934;-82
2022/06/13 15:27:26;;;;;;;6.85;1.10;;;;;;;23.58;53.62;99766.03;2283057;84;25678;-80
2022/06/13 15:31:13;;;;;;;8.95;0.93;;;;;;;23.64;53.93;99760.95;2309864;83;25856;-81
2022/06/13 15:34:35;;;;;;;6.10;1.80;;;;;;;23.73;53.93;99785.43;2217622;86;25887;-76
2022/06/13 15:37:56;;;;;;;8.00;1.22;;;;;;;23.83;53.96;99837.84;2217320;86;26447;-78
2022/06/13 15:41:39;;;;;;;1.70;0.90;;;;;;;23.93;53.81;99856.52;2230380;87;26363;-81
2022/06/13 15:45:04;;;;;;;1.87;0.78;;;;;;;24.00;53.37;99858.00;2222071;87;25834;-74
2022/06/13 15:48:25;;;;;;;1.45;0.50;;;;;;;24.08;53.23;99844.84;2231731;86;25734;-79
2022/06/13 15:52:04;;;;;;;1.52;0.90;;;;;;;24.10;52.98;99830.97;2240835;86;26064;-79
2022/06/13 15:55:48;;;;;;;3.05;0.98;;;;;;;24.07;52.69;99824.00;2219552;86;25767;-80
2022/06/13 15:59:20;;;;;;;1.15;0.60;;;;;;;24.07;52.59;99846.64;2208375;87;25927;-81
2022/06/13 16:02:49;;;;;;;1.50;0.88;;;;;;;24.06;52.47;99879.97;2233933;86;26545;-83
2022/06/13 16:06:16;;;;;;;1.35;0.85;;;;;;;24.05;52.47;99893.75;2251196;85;26644;-81
2022/06/13 16:09:42;;;;;;;1.27;0.70;;;;;;;24.07;52.50;99888.38;2296738;85;25644;-82
2022/06/13 16:13:14;;;;;;;2.30;0.98;;;;;;;24.03;52.56;99904.48;2265004;85;25758;-82
2022/06/13 16:16:37;;;;;;;1.95;0.90;;;;;;;24.03;52.88;99909.80;2188612;88;25855;-84
2022/06/13 16:20:42;;;;;;;1.17;0.50;;;;;;;24.09;52.90;99943.76;2187329;88;25784;-75
2022/06/13 16:24:17;;;;;;;1.85;0.90;;;;;;;24.01;52.60;99939.60;2140787;89;25973;-77
2022/06/13 16:27:55;;;;;;;;;;;;;;;;;;;;;
2022/06/13 16:31:17;;;;;;;4.70;0.80;;;;;;;23.82;52.44;99985.15;2205912;87;25872;-83
2022/06/13 16:39:51;;;;;;;;;;;;;;;;;;;;;
2022/06/13 16:43:12;;;;;;;;;;;;;;;;;;;;;
2022/06/13 16:46:53;;;;;;;1.27;0.60;;;;;;;23.50;52.37;99962.37;2163277;88;25996;-83
2022/06/13 16:50:36;;;;;;;1.02;0.60;;;;;;;23.48;52.36;99954.89;2125354;91;25761;-76
2022/06/13 16:54:44;;;;;;;1.60;0.60;;;;;;;23.43;52.13;99933.78;2041084;94;25860;-90
2022/06/13 16:58:45;;;;;;;;;;;;;;;;;;;;;
2022/06/13 17:06:08;;;;;;;1.60;0.70;;;;;;;23.13;52.08;99892.34;2046575;95;25925;-90
2022/06/13 17:09:56;;;;;;;1.17;0.75;;;;;;;22.94;52.24;99865.06;2026906;95;26854;-85
2022/06/13 17:13:58;;;;;;;2.12;0.93;;;;;;;22.78;52.45;99855.42;1942739;100;26389;-82
2022/06/13 17:21:32;;;;;;;3.80;2.00;;;;;;;22.22;52.76;99828.98;1940601;99;25826;-78
2022/06/13 17:33:16;;;;;;;6.42;0.60;;;;;;;21.87;53.77;99870.78;2017189;92;26229;-79
2022/06/13 17:37:06;;;;;;;;;;;;;;;;;;;;;
2022/06/13 17:40:45;;;;;;;0.98;0.75;;;;;;;22.12;53.93;99910.69;2042923;95;26599;-89
2022/06/13 17:44:23;;;;;;;;;;;;;;;22.28;54.30;99914.23;2030896;94;25696;-90
2022/06/13 17:48:04;;;;;;;2.37;0.88;;;;;;;22.46;54.24;99906.98;2040709;94;25806;-81
2022/06/13 17:51:33;;;;;;;0.75;0.57;;;;;;;22.61;53.91;99911.80;2110621;91;25813;-79
2022/06/13 17:55:20;;;;;;;3.37;0.80;;;;;;;22.72;53.71;99927.38;2129607;91;26100;-83
2022/06/13 18:02:48;;;;;;;2.42;0.98;;;;;;;22.92;53.35;99945.77;2041515;95;25738;-89
2022/06/13 18:10:25;;;;;;;1.98;1.77;;;;;;;23.13;53.16;99966.80;2019543;96;25896;-84
2022/06/13 18:17:49;;;;;;;;;;;;;;;;;;;;;
2022/06/13 18:21:16;;;;;;;4.70;3.95;;;;;;;23.49;53.93;99985.45;1890993;95;25830;-84
2022/06/13 18:28:29;;;;;;;3.65;3.27;;;;;;;23.66;53.73;99992.82;1826819;106;26587;-84
2022/06/13 18:31:50;;;;;;;3.40;3.10;;;;;;;23.63;53.52;99993.40;1827169;108;25917;-78
2022/06/13 18:35:12;;;;;;;3.22;2.92;;;;;;;23.52;53.38;99982.69;1827124;108;26622;-86
2022/06/13 18:38:36;;;;;;;2.85;2.40;;;;;;;23.50;53.36;99987.64;1827196;108;25940;-79
2022/06/13 18:42:10;;;;;;;3.05;2.30;;;;;;;23.47;53.22;99991.27;1831931;107;25918;-77
2022/06/13 18:45:56;;;;;;;2.70;1.70;;;;;;;23.44;53.14;100001.16;1827371;108;25866;-78
2022/06/13 18:49:26;;;;;;;3.45;1.90;;;;;;;23.40;53.25;100003.06;1837197;105;25808;-77
2022/06/13 18:52:50;;;;;;;2.22;1.50;;;;;;;23.33;53.31;100002.87;1886683;103;25871;-77
2022/06/13 18:56:17;;;;;;;4.03;1.20;;;;;;;23.30;53.27;100006.97;1901756;103;26240;-81
2022/06/13 18:59:50;;;;;;;1.65;1.02;;;;;;;23.28;53.24;100003.48;2005057;94;25879;-83
2022/06/13 19:03:22;;;;;;;1.07;0.80;;;;;;;23.19;53.14;100017.11;2044186;94;25869;-91
2022/06/13 19:06:54;;;;;;;2.77;1.20;;;;;;;23.16;53.09;100022.53;2064735;92;25685;-77
2022/06/13 19:10:30;;;;;;;1.70;1.20;;;;;;;23.09;53.06;100029.38;2067676;92;25757;-86
2022/06/13 19:14:02;;;;;;;4.20;0.95;;;;;;;23.08;53.06;100035.63;2091908;91;26073;-85
2022/06/13 19:17:30;;;;;;;1.75;1.00;;;;;;;23.08;52.95;100030.75;2112308;91;25981;-87
2022/06/13 19:21:11;;;;;;;3.37;0.85;;;;;;;23.10;52.81;100028.92;2127749;86;25831;-76
2022/06/13 19:24:46;;;;;;;1.47;1.05;;;;;;;23.05;52.76;100034.83;2215290;84;25711;-75
2022/06/13 19:32:36;;;;;;;1.40;0.90;;;;;;;22.93;52.56;100041.91;2358368;83;25718;-90
2022/06/13 19:35:58;;;;;;;1.77;0.90;;;;;;;22.68;52.65;100051.06;2356137;83;25796;-84
2022/06/13 19:39:20;;;;;;;4.33;1.02;;;;;;;22.52;53.04;100048.05;2367834;83;25597;-83
2022/06/13 19:42:45;;;;;;;2.67;0.88;;;;;;;22.44;53.20;100055.36;2355699;83;25193;-81
2022/06/13 19:46:05;;;;;;;1.87;1.10;;;;;;;22.37;53.34;100056.86;2356948;83;25671;-87
2022/06/13 19:49:26;;;;;;;3.50;1.20;;;;;;;22.27;53.42;100066.02;2342958;83;25703;-78
2022/06/13 19:53:11;;;;;;;1.72;1.00;;;;;;;22.10;53.42;100071.79;2309834;83;25741;-76